sensor_id;sensor_type;location;lat;lon;timestamp;P1;durP1;ratioP1;P2;durP2;ratioP2
8419;SDS011;4247;48.550;8.822;2022-08-19T00:01:31;13.87;;;8.73;;
8419;SDS011;4247;48.550;8.822;2022-08-19T00:04:00;12.67;;;9.90;;
8419;SDS011;4247;48.550;8.822;2022-08-19T00:06:30;12.47;;;9.50;;
8419;SDS011;4247;48.550;8.822;2022-08-19T00:08:57;16.27;;;11.13;;
8419;SDS011;4247;48.550;8.822;2022-08-19T00:11:27;17.43;;;10.43;;
8419;SDS011;4247;48.550;8.822;2022-08-19T00:13:54;15.67;;;10.03;;
8419;SDS011;4247;48.550;8.822;2022-08-19T00:16:22;15.93;;;9.90;;
8419;SDS011;4247;48.550;8.822;2022-08-19T00:18:49;15.33;;;10.23;;
8419;SDS011;4247;48.550;8.822;2022-08-19T00:21:16;15.67;;;10.07;;
8419;SDS011;4247;48.550;8.822;2022-08-19T00:23:43;15.40;;;10.13;;
8419;SDS011;4247;48.550;8.822;2022-08-19T00:26:11;15.27;;;10.60;;
8419;SDS011;4247;48.550;8.822;2022-08-19T00:28:39;17.03;;;10.10;;
8419;SDS011;4247;48.550;8.822;2022-08-19T00:31:07;14.70;;;10.60;;
8419;SDS011;4247;48.550;8.822;2022-08-19T00:33:34;12.73;;;10.10;;
8419;SDS011;4247;48.550;8.822;2022-08-19T00:36:02;17.70;;;11.40;;
8419;SDS011;4247;48.550;8.822;2022-08-19T00:38:31;15.97;;;11.03;;
8419;SDS011;4247;48.550;8.822;2022-08-19T00:40:58;17.13;;;10.30;;
8419;SDS011;4247;48.550;8.822;2022-08-19T00:43:26;17.20;;;11.20;;
8419;SDS011;4247;48.550;8.822;2022-08-19T00:45:54;21.47;;;12.20;;
8419;SDS011;4247;48.550;8.822;2022-08-19T00:48:21;18.50;;;11.50;;
8419;SDS011;4247;48.550;8.822;2022-08-19T00:50:49;17.90;;;11.27;;
8419;SDS011;4247;48.550;8.822;2022-08-19T00:53:20;18.43;;;11.93;;
8419;SDS011;4247;48.550;8.822;2022-08-19T00:55:52;18.77;;;12.23;;
8419;SDS011;4247;48.550;8.822;2022-08-19T00:58:22;16.90;;;11.80;;
8419;SDS011;4247;48.550;8.822;2022-08-19T01:00:55;19.70;;;12.67;;
8419;SDS011;4247;48.550;8.822;2022-08-19T01:03:23;21.07;;;12.03;;
8419;SDS011;4247;48.550;8.822;2022-08-19T01:05:51;20.03;;;13.47;;
8419;SDS011;4247;48.550;8.822;2022-08-19T01:08:21;18.67;;;12.47;;
8419;SDS011;4247;48.550;8.822;2022-08-19T01:10:49;19.17;;;12.33;;
8419;SDS011;4247;48.550;8.822;2022-08-19T01:13:25;21.50;;;13.10;;
8419;SDS011;4247;48.550;8.822;2022-08-19T01:15:58;18.63;;;12.03;;
8419;SDS011;4247;48.550;8.822;2022-08-19T01:18:27;19.97;;;13.03;;
8419;SDS011;4247;48.550;8.822;2022-08-19T01:20:58;23.63;;;13.83;;
8419;SDS011;4247;48.550;8.822;2022-08-19T01:23:33;21.80;;;13.60;;
8419;SDS011;4247;48.550;8.822;2022-08-19T01:26:10;19.97;;;12.60;;
8419;SDS011;4247;48.550;8.822;2022-08-19T01:28:39;20.30;;;14.23;;
8419;SDS011;4247;48.550;8.822;2022-08-19T01:31:06;22.67;;;14.63;;
8419;SDS011;4247;48.550;8.822;2022-08-19T01:33:40;19.97;;;13.40;;
8419;SDS011;4247;48.550;8.822;2022-08-19T01:36:09;18.87;;;13.00;;
8419;SDS011;4247;48.550;8.822;2022-08-19T01:38:41;22.63;;;13.63;;
8419;SDS011;4247;48.550;8.822;2022-08-19T01:41:09;20.87;;;13.73;;
8419;SDS011;4247;48.550;8.822;2022-08-19T01:43:37;23.47;;;13.43;;
8419;SDS011;4247;48.550;8.822;2022-08-19T01:46:04;20.73;;;13.20;;
8419;SDS011;4247;48.550;8.822;2022-08-19T01:48:35;19.27;;;12.97;;
8419;SDS011;4247;48.550;8.822;2022-08-19T01:51:03;23.33;;;13.73;;
8419;SDS011;4247;48.550;8.822;2022-08-19T01:53:30;22.23;;;14.20;;
8419;SDS011;4247;48.550;8.822;2022-08-19T01:55:59;22.23;;;14.13;;
8419;SDS011;4247;48.550;8.822;2022-08-19T01:58:27;24.03;;;13.47;;
8419;SDS011;4247;48.550;8.822;2022-08-19T02:00:58;19.10;;;12.63;;
8419;SDS011;4247;48.550;8.822;2022-08-19T02:03:25;22.50;;;13.40;;
8419;SDS011;4247;48.550;8.822;2022-08-19T02:05:56;21.10;;;14.63;;
8419;SDS011;4247;48.550;8.822;2022-08-19T02:08:24;20.40;;;13.40;;
8419;SDS011;4247;48.550;8.822;2022-08-19T02:10:52;21.73;;;14.17;;
8419;SDS011;4247;48.550;8.822;2022-08-19T02:13:20;21.87;;;14.00;;
8419;SDS011;4247;48.550;8.822;2022-08-19T02:15:47;29.83;;;15.03;;
8419;SDS011;4247;48.550;8.822;2022-08-19T02:18:14;20.70;;;14.40;;
8419;SDS011;4247;48.550;8.822;2022-08-19T02:20:41;22.20;;;13.77;;
8419;SDS011;4247;48.550;8.822;2022-08-19T02:23:10;25.83;;;15.27;;
8419;SDS011;4247;48.550;8.822;2022-08-19T02:25:39;22.87;;;15.47;;
8419;SDS011;4247;48.550;8.822;2022-08-19T02:28:06;25.30;;;14.43;;
8419;SDS011;4247;48.550;8.822;2022-08-19T02:30:35;22.80;;;14.70;;
8419;SDS011;4247;48.550;8.822;2022-08-19T02:33:03;21.67;;;14.93;;
8419;SDS011;4247;48.550;8.822;2022-08-19T02:35:30;24.13;;;15.87;;
8419;SDS011;4247;48.550;8.822;2022-08-19T02:37:58;23.87;;;14.83;;
8419;SDS011;4247;48.550;8.822;2022-08-19T02:40:47;24.33;;;14.87;;
8419;SDS011;4247;48.550;8.822;2022-08-19T02:43:16;20.97;;;13.77;;
8419;SDS011;4247;48.550;8.822;2022-08-19T02:45:47;25.13;;;14.83;;
8419;SDS011;4247;48.550;8.822;2022-08-19T02:48:17;25.13;;;13.83;;
8419;SDS011;4247;48.550;8.822;2022-08-19T02:50:46;24.10;;;14.57;;
8419;SDS011;4247;48.550;8.822;2022-08-19T02:53:16;21.57;;;13.57;;
8419;SDS011;4247;48.550;8.822;2022-08-19T02:55:43;19.03;;;14.03;;
8419;SDS011;4247;48.550;8.822;2022-08-19T02:58:12;21.87;;;14.27;;
8419;SDS011;4247;48.550;8.822;2022-08-19T03:00:43;22.47;;;14.80;;
8419;SDS011;4247;48.550;8.822;2022-08-19T03:03:13;22.53;;;14.50;;
8419;SDS011;4247;48.550;8.822;2022-08-19T03:05:40;23.73;;;14.47;;
8419;SDS011;4247;48.550;8.822;2022-08-19T03:08:08;18.30;;;13.23;;
8419;SDS011;4247;48.550;8.822;2022-08-19T03:10:41;21.07;;;13.43;;
8419;SDS011;4247;48.550;8.822;2022-08-19T03:13:10;22.73;;;13.87;;
8419;SDS011;4247;48.550;8.822;2022-08-19T03:15:39;20.43;;;14.53;;
8419;SDS011;4247;48.550;8.822;2022-08-19T03:18:07;24.27;;;15.23;;
8419;SDS011;4247;48.550;8.822;2022-08-19T03:20:35;25.37;;;15.37;;
8419;SDS011;4247;48.550;8.822;2022-08-19T03:23:06;24.67;;;16.73;;
8419;SDS011;4247;48.550;8.822;2022-08-19T03:25:36;24.40;;;17.03;;
8419;SDS011;4247;48.550;8.822;2022-08-19T03:28:05;30.93;;;17.40;;
8419;SDS011;4247;48.550;8.822;2022-08-19T03:30:32;29.87;;;15.93;;
8419;SDS011;4247;48.550;8.822;2022-08-19T03:32:59;28.70;;;15.87;;
8419;SDS011;4247;48.550;8.822;2022-08-19T03:35:26;31.30;;;18.80;;
8419;SDS011;4247;48.550;8.822;2022-08-19T03:37:55;32.30;;;17.50;;
8419;SDS011;4247;48.550;8.822;2022-08-19T03:40:22;23.97;;;16.30;;
8419;SDS011;4247;48.550;8.822;2022-08-19T03:42:49;29.33;;;16.97;;
8419;SDS011;4247;48.550;8.822;2022-08-19T03:45:19;27.37;;;17.97;;
8419;SDS011;4247;48.550;8.822;2022-08-19T03:47:46;26.33;;;17.10;;
8419;SDS011;4247;48.550;8.822;2022-08-19T03:50:12;27.60;;;18.03;;
8419;SDS011;4247;48.550;8.822;2022-08-19T03:52:39;29.23;;;18.27;;
8419;SDS011;4247;48.550;8.822;2022-08-19T03:55:09;30.40;;;17.37;;
8419;SDS011;4247;48.550;8.822;2022-08-19T03:57:35;25.00;;;16.20;;
8419;SDS011;4247;48.550;8.822;2022-08-19T04:00:03;33.03;;;18.00;;
8419;SDS011;4247;48.550;8.822;2022-08-19T04:02:32;29.83;;;18.10;;
8419;SDS011;4247;48.550;8.822;2022-08-19T04:04:59;27.80;;;17.67;;
8419;SDS011;4247;48.550;8.822;2022-08-19T04:07:27;30.40;;;18.60;;
8419;SDS011;4247;48.550;8.822;2022-08-19T04:09:55;29.40;;;18.90;;
8419;SDS011;4247;48.550;8.822;2022-08-19T04:12:23;29.13;;;17.87;;
8419;SDS011;4247;48.550;8.822;2022-08-19T04:14:50;27.67;;;17.93;;
8419;SDS011;4247;48.550;8.822;2022-08-19T04:17:17;30.40;;;18.20;;
8419;SDS011;4247;48.550;8.822;2022-08-19T04:19:43;31.40;;;18.67;;
8419;SDS011;4247;48.550;8.822;2022-08-19T04:22:10;29.37;;;18.33;;
8419;SDS011;4247;48.550;8.822;2022-08-19T04:24:37;25.87;;;17.93;;
8419;SDS011;4247;48.550;8.822;2022-08-19T04:27:04;26.63;;;18.53;;
8419;SDS011;4247;48.550;8.822;2022-08-19T04:29:33;26.83;;;18.07;;
8419;SDS011;4247;48.550;8.822;2022-08-19T04:32:00;29.80;;;18.60;;
8419;SDS011;4247;48.550;8.822;2022-08-19T04:34:27;30.00;;;17.93;;
8419;SDS011;4247;48.550;8.822;2022-08-19T04:36:55;31.27;;;18.13;;
8419;SDS011;4247;48.550;8.822;2022-08-19T04:39:23;28.80;;;18.67;;
8419;SDS011;4247;48.550;8.822;2022-08-19T04:42:12;30.87;;;17.70;;
8419;SDS011;4247;48.550;8.822;2022-08-19T04:44:58;28.63;;;18.80;;
8419;SDS011;4247;48.550;8.822;2022-08-19T04:47:27;28.43;;;18.27;;
8419;SDS011;4247;48.550;8.822;2022-08-19T04:49:56;26.67;;;18.27;;
8419;SDS011;4247;48.550;8.822;2022-08-19T04:52:23;26.13;;;17.93;;
8419;SDS011;4247;48.550;8.822;2022-08-19T04:54:50;31.33;;;17.77;;
8419;SDS011;4247;48.550;8.822;2022-08-19T04:57:17;26.37;;;17.80;;
8419;SDS011;4247;48.550;8.822;2022-08-19T04:59:53;26.90;;;17.60;;
8419;SDS011;4247;48.550;8.822;2022-08-19T05:02:22;34.50;;;18.30;;
8419;SDS011;4247;48.550;8.822;2022-08-19T05:04:50;29.70;;;17.53;;
8419;SDS011;4247;48.550;8.822;2022-08-19T05:07:17;31.67;;;19.17;;
8419;SDS011;4247;48.550;8.822;2022-08-19T05:09:43;28.10;;;17.33;;
8419;SDS011;4247;48.550;8.822;2022-08-19T05:12:10;26.23;;;17.07;;
8419;SDS011;4247;48.550;8.822;2022-08-19T05:14:37;30.57;;;18.07;;
8419;SDS011;4247;48.550;8.822;2022-08-19T05:17:04;28.53;;;17.33;;
8419;SDS011;4247;48.550;8.822;2022-08-19T05:19:33;28.07;;;18.37;;
8419;SDS011;4247;48.550;8.822;2022-08-19T05:22:17;29.67;;;18.27;;
8419;SDS011;4247;48.550;8.822;2022-08-19T05:25:01;26.87;;;17.87;;
8419;SDS011;4247;48.550;8.822;2022-08-19T05:27:30;31.43;;;18.50;;
8419;SDS011;4247;48.550;8.822;2022-08-19T05:29:57;27.10;;;18.50;;
8419;SDS011;4247;48.550;8.822;2022-08-19T05:32:25;31.13;;;19.83;;
8419;SDS011;4247;48.550;8.822;2022-08-19T05:34:53;27.87;;;18.20;;
8419;SDS011;4247;48.550;8.822;2022-08-19T05:37:21;33.87;;;20.20;;
8419;SDS011;4247;48.550;8.822;2022-08-19T05:39:48;28.77;;;19.40;;
8419;SDS011;4247;48.550;8.822;2022-08-19T05:42:15;27.93;;;18.53;;
8419;SDS011;4247;48.550;8.822;2022-08-19T05:44:45;29.27;;;18.07;;
8419;SDS011;4247;48.550;8.822;2022-08-19T05:47:14;33.50;;;18.43;;
8419;SDS011;4247;48.550;8.822;2022-08-19T05:49:41;28.70;;;19.40;;
8419;SDS011;4247;48.550;8.822;2022-08-19T05:52:11;33.10;;;19.80;;
8419;SDS011;4247;48.550;8.822;2022-08-19T05:54:42;28.70;;;18.53;;
8419;SDS011;4247;48.550;8.822;2022-08-19T05:57:12;28.83;;;18.73;;
8419;SDS011;4247;48.550;8.822;2022-08-19T05:59:40;25.07;;;16.50;;
8419;SDS011;4247;48.550;8.822;2022-08-19T06:02:06;24.60;;;16.90;;
8419;SDS011;4247;48.550;8.822;2022-08-19T06:04:33;26.23;;;17.17;;
8419;SDS011;4247;48.550;8.822;2022-08-19T06:07:00;24.73;;;16.43;;
8419;SDS011;4247;48.550;8.822;2022-08-19T06:09:29;29.47;;;18.03;;
8419;SDS011;4247;48.550;8.822;2022-08-19T06:11:57;27.87;;;17.90;;
8419;SDS011;4247;48.550;8.822;2022-08-19T06:14:31;27.03;;;17.97;;
8419;SDS011;4247;48.550;8.822;2022-08-19T06:16:59;29.23;;;17.93;;
8419;SDS011;4247;48.550;8.822;2022-08-19T06:19:26;28.53;;;18.23;;
8419;SDS011;4247;48.550;8.822;2022-08-19T06:21:55;31.67;;;19.73;;
8419;SDS011;4247;48.550;8.822;2022-08-19T06:24:23;32.87;;;18.77;;
8419;SDS011;4247;48.550;8.822;2022-08-19T06:26:54;30.77;;;18.00;;
8419;SDS011;4247;48.550;8.822;2022-08-19T06:29:23;26.63;;;18.07;;
8419;SDS011;4247;48.550;8.822;2022-08-19T06:31:52;27.07;;;17.97;;
8419;SDS011;4247;48.550;8.822;2022-08-19T06:34:21;27.83;;;17.57;;
8419;SDS011;4247;48.550;8.822;2022-08-19T06:36:49;25.57;;;16.87;;
8419;SDS011;4247;48.550;8.822;2022-08-19T06:39:18;29.73;;;18.97;;
8419;SDS011;4247;48.550;8.822;2022-08-19T06:41:48;29.17;;;17.60;;
8419;SDS011;4247;48.550;8.822;2022-08-19T06:44:19;25.10;;;17.03;;
8419;SDS011;4247;48.550;8.822;2022-08-19T06:46:51;25.53;;;17.50;;
8419;SDS011;4247;48.550;8.822;2022-08-19T06:49:18;31.07;;;18.20;;
8419;SDS011;4247;48.550;8.822;2022-08-19T06:51:46;27.93;;;18.07;;
8419;SDS011;4247;48.550;8.822;2022-08-19T06:54:14;25.13;;;16.23;;
8419;SDS011;4247;48.550;8.822;2022-08-19T06:56:42;27.03;;;17.37;;
8419;SDS011;4247;48.550;8.822;2022-08-19T06:59:11;27.23;;;17.07;;
8419;SDS011;4247;48.550;8.822;2022-08-19T07:01:42;27.43;;;17.13;;
8419;SDS011;4247;48.550;8.822;2022-08-19T07:04:12;28.23;;;19.23;;
8419;SDS011;4247;48.550;8.822;2022-08-19T07:06:40;26.97;;;16.87;;
8419;SDS011;4247;48.550;8.822;2022-08-19T07:09:09;25.53;;;16.07;;
8419;SDS011;4247;48.550;8.822;2022-08-19T07:11:37;26.57;;;16.23;;
8419;SDS011;4247;48.550;8.822;2022-08-19T07:14:05;29.20;;;18.73;;
8419;SDS011;4247;48.550;8.822;2022-08-19T07:16:33;26.37;;;17.23;;
8419;SDS011;4247;48.550;8.822;2022-08-19T07:19:02;27.57;;;17.07;;
8419;SDS011;4247;48.550;8.822;2022-08-19T07:21:29;26.07;;;17.37;;
8419;SDS011;4247;48.550;8.822;2022-08-19T07:23:56;24.00;;;16.70;;
8419;SDS011;4247;48.550;8.822;2022-08-19T07:26:25;25.90;;;16.87;;
8419;SDS011;4247;48.550;8.822;2022-08-19T07:28:54;28.40;;;17.03;;
8419;SDS011;4247;48.550;8.822;2022-08-19T07:31:23;24.23;;;17.00;;
8419;SDS011;4247;48.550;8.822;2022-08-19T07:33:52;22.60;;;14.87;;
8419;SDS011;4247;48.550;8.822;2022-08-19T07:36:24;23.83;;;15.17;;
8419;SDS011;4247;48.550;8.822;2022-08-19T07:38:57;22.23;;;14.57;;
8419;SDS011;4247;48.550;8.822;2022-08-19T07:41:27;20.03;;;14.30;;
8419;SDS011;4247;48.550;8.822;2022-08-19T07:43:56;20.97;;;13.90;;
8419;SDS011;4247;48.550;8.822;2022-08-19T07:46:24;19.87;;;14.27;;
8419;SDS011;4247;48.550;8.822;2022-08-19T07:48:53;22.07;;;14.67;;
8419;SDS011;4247;48.550;8.822;2022-08-19T07:51:20;21.23;;;13.93;;
8419;SDS011;4247;48.550;8.822;2022-08-19T07:53:49;23.63;;;13.60;;
8419;SDS011;4247;48.550;8.822;2022-08-19T07:56:16;20.87;;;12.83;;
8419;SDS011;4247;48.550;8.822;2022-08-19T07:58:44;17.50;;;12.27;;
8419;SDS011;4247;48.550;8.822;2022-08-19T08:01:13;18.93;;;13.00;;
8419;SDS011;4247;48.550;8.822;2022-08-19T08:03:41;15.70;;;11.73;;
8419;SDS011;4247;48.550;8.822;2022-08-19T08:06:44;18.23;;;13.20;;
8419;SDS011;4247;48.550;8.822;2022-08-19T08:09:29;15.93;;;11.50;;
8419;SDS011;4247;48.550;8.822;2022-08-19T08:12:00;16.00;;;11.60;;
8419;SDS011;4247;48.550;8.822;2022-08-19T08:14:31;16.53;;;12.37;;
8419;SDS011;4247;48.550;8.822;2022-08-19T08:17:04;15.27;;;11.03;;
8419;SDS011;4247;48.550;8.822;2022-08-19T08:19:34;16.20;;;12.03;;
8419;SDS011;4247;48.550;8.822;2022-08-19T08:22:03;16.43;;;11.40;;
8419;SDS011;4247;48.550;8.822;2022-08-19T08:24:31;20.23;;;10.10;;
8419;SDS011;4247;48.550;8.822;2022-08-19T08:26:59;15.93;;;11.07;;
8419;SDS011;4247;48.550;8.822;2022-08-19T08:29:27;12.47;;;10.27;;
8419;SDS011;4247;48.550;8.822;2022-08-19T08:31:55;14.07;;;10.23;;
8419;SDS011;4247;48.550;8.822;2022-08-19T08:34:22;14.37;;;10.73;;
8419;SDS011;4247;48.550;8.822;2022-08-19T08:36:49;14.63;;;10.50;;
8419;SDS011;4247;48.550;8.822;2022-08-19T08:39:20;18.47;;;10.30;;
8419;SDS011;4247;48.550;8.822;2022-08-19T08:41:50;12.30;;;9.13;;
8419;SDS011;4247;48.550;8.822;2022-08-19T08:44:21;13.47;;;10.33;;
8419;SDS011;4247;48.550;8.822;2022-08-19T08:47:04;10.17;;;9.07;;
8419;SDS011;4247;48.550;8.822;2022-08-19T08:49:43;13.40;;;9.50;;
8419;SDS011;4247;48.550;8.822;2022-08-19T08:52:15;13.50;;;9.00;;
8419;SDS011;4247;48.550;8.822;2022-08-19T08:54:49;9.60;;;8.60;;
8419;SDS011;4247;48.550;8.822;2022-08-19T08:57:19;13.53;;;8.57;;
8419;SDS011;4247;48.550;8.822;2022-08-19T08:59:54;10.47;;;8.20;;
8419;SDS011;4247;48.550;8.822;2022-08-19T09:02:24;10.77;;;8.10;;
8419;SDS011;4247;48.550;8.822;2022-08-19T09:04:53;11.17;;;8.80;;
8419;SDS011;4247;48.550;8.822;2022-08-19T09:07:23;12.73;;;9.40;;
8419;SDS011;4247;48.550;8.822;2022-08-19T09:10:04;12.30;;;8.17;;
8419;SDS011;4247;48.550;8.822;2022-08-19T09:12:43;10.13;;;8.20;;
8419;SDS011;4247;48.550;8.822;2022-08-19T09:15:21;13.83;;;9.33;;
8419;SDS011;4247;48.550;8.822;2022-08-19T09:17:52;11.10;;;8.60;;
8419;SDS011;4247;48.550;8.822;2022-08-19T09:20:21;9.57;;;7.97;;
8419;SDS011;4247;48.550;8.822;2022-08-19T09:22:50;11.27;;;8.63;;
8419;SDS011;4247;48.550;8.822;2022-08-19T09:25:19;10.57;;;9.33;;
8419;SDS011;4247;48.550;8.822;2022-08-19T09:27:49;10.80;;;8.57;;
8419;SDS011;4247;48.550;8.822;2022-08-19T09:30:19;13.13;;;7.87;;
8419;SDS011;4247;48.550;8.822;2022-08-19T09:32:50;11.67;;;8.47;;
8419;SDS011;4247;48.550;8.822;2022-08-19T09:35:19;9.33;;;7.63;;
8419;SDS011;4247;48.550;8.822;2022-08-19T09:37:48;9.80;;;7.93;;
8419;SDS011;4247;48.550;8.822;2022-08-19T09:40:16;10.77;;;8.23;;
8419;SDS011;4247;48.550;8.822;2022-08-19T09:42:45;11.87;;;7.87;;
8419;SDS011;4247;48.550;8.822;2022-08-19T09:45:12;10.13;;;8.20;;
8419;SDS011;4247;48.550;8.822;2022-08-19T09:47:40;8.60;;;7.70;;
8419;SDS011;4247;48.550;8.822;2022-08-19T09:50:08;8.07;;;7.33;;
8419;SDS011;4247;48.550;8.822;2022-08-19T09:52:37;10.60;;;8.13;;
8419;SDS011;4247;48.550;8.822;2022-08-19T09:55:05;13.20;;;8.30;;
8419;SDS011;4247;48.550;8.822;2022-08-19T09:57:33;10.53;;;7.83;;
8419;SDS011;4247;48.550;8.822;2022-08-19T10:00:02;13.13;;;9.07;;
8419;SDS011;4247;48.550;8.822;2022-08-19T10:02:31;10.27;;;8.57;;
8419;SDS011;4247;48.550;8.822;2022-08-19T10:04:59;8.63;;;7.60;;
8419;SDS011;4247;48.550;8.822;2022-08-19T10:07:43;13.37;;;8.53;;
8419;SDS011;4247;48.550;8.822;2022-08-19T10:10:10;14.43;;;8.83;;
8419;SDS011;4247;48.550;8.822;2022-08-19T10:12:37;8.90;;;7.70;;
8419;SDS011;4247;48.550;8.822;2022-08-19T10:15:10;9.77;;;8.77;;
8419;SDS011;4247;48.550;8.822;2022-08-19T10:17:38;12.53;;;9.53;;
8419;SDS011;4247;48.550;8.822;2022-08-19T10:20:05;10.90;;;9.27;;
8419;SDS011;4247;48.550;8.822;2022-08-19T10:22:32;8.97;;;7.63;;
8419;SDS011;4247;48.550;8.822;2022-08-19T10:25:00;10.03;;;8.07;;
8419;SDS011;4247;48.550;8.822;2022-08-19T10:27:29;11.03;;;8.43;;
8419;SDS011;4247;48.550;8.822;2022-08-19T10:29:56;15.17;;;8.90;;
8419;SDS011;4247;48.550;8.822;2022-08-19T10:32:24;8.83;;;7.93;;
8419;SDS011;4247;48.550;8.822;2022-08-19T10:34:51;11.60;;;8.97;;
8419;SDS011;4247;48.550;8.822;2022-08-19T10:37:18;11.57;;;7.93;;
8419;SDS011;4247;48.550;8.822;2022-08-19T10:39:45;11.93;;;8.43;;
8419;SDS011;4247;48.550;8.822;2022-08-19T10:42:13;10.73;;;7.67;;
8419;SDS011;4247;48.550;8.822;2022-08-19T10:44:41;13.47;;;8.53;;
8419;SDS011;4247;48.550;8.822;2022-08-19T10:47:08;8.37;;;7.30;;
8419;SDS011;4247;48.550;8.822;2022-08-19T10:49:37;9.13;;;7.43;;
8419;SDS011;4247;48.550;8.822;2022-08-19T10:52:23;10.00;;;7.93;;
8419;SDS011;4247;48.550;8.822;2022-08-19T10:54:58;12.83;;;8.27;;
8419;SDS011;4247;48.550;8.822;2022-08-19T10:57:46;11.70;;;7.43;;
8419;SDS011;4247;48.550;8.822;2022-08-19T11:00:13;9.30;;;7.80;;
8419;SDS011;4247;48.550;8.822;2022-08-19T11:02:40;8.03;;;7.17;;
8419;SDS011;4247;48.550;8.822;2022-08-19T11:05:09;8.77;;;6.40;;
8419;SDS011;4247;48.550;8.822;2022-08-19T11:07:37;7.40;;;6.60;;
8419;SDS011;4247;48.550;8.822;2022-08-19T11:10:08;10.23;;;7.00;;
8419;SDS011;4247;48.550;8.822;2022-08-19T11:12:37;9.07;;;7.00;;
8419;SDS011;4247;48.550;8.822;2022-08-19T11:15:05;6.83;;;6.13;;
8419;SDS011;4247;48.550;8.822;2022-08-19T11:17:36;12.70;;;6.70;;
8419;SDS011;4247;48.550;8.822;2022-08-19T11:20:06;12.47;;;7.57;;
8419;SDS011;4247;48.550;8.822;2022-08-19T11:22:37;10.83;;;6.67;;
8419;SDS011;4247;48.550;8.822;2022-08-19T11:25:05;7.80;;;5.73;;
8419;SDS011;4247;48.550;8.822;2022-08-19T11:27:33;6.60;;;6.00;;
8419;SDS011;4247;48.550;8.822;2022-08-19T11:30:03;9.43;;;5.67;;
8419;SDS011;4247;48.550;8.822;2022-08-19T11:32:32;7.20;;;6.50;;
8419;SDS011;4247;48.550;8.822;2022-08-19T11:35:00;6.73;;;5.67;;
8419;SDS011;4247;48.550;8.822;2022-08-19T11:37:28;5.80;;;5.20;;
8419;SDS011;4247;48.550;8.822;2022-08-19T11:39:55;7.77;;;6.50;;
8419;SDS011;4247;48.550;8.822;2022-08-19T11:42:25;7.97;;;6.37;;
8419;SDS011;4247;48.550;8.822;2022-08-19T11:45:10;6.10;;;5.37;;
8419;SDS011;4247;48.550;8.822;2022-08-19T11:47:37;7.20;;;5.63;;
8419;SDS011;4247;48.550;8.822;2022-08-19T11:50:05;5.73;;;5.20;;
8419;SDS011;4247;48.550;8.822;2022-08-19T11:52:37;5.83;;;4.80;;
8419;SDS011;4247;48.550;8.822;2022-08-19T11:55:04;10.07;;;5.13;;
8419;SDS011;4247;48.550;8.822;2022-08-19T11:57:32;5.80;;;5.30;;
8419;SDS011;4247;48.550;8.822;2022-08-19T11:59:59;5.60;;;4.90;;
8419;SDS011;4247;48.550;8.822;2022-08-19T12:02:26;10.27;;;4.70;;
8419;SDS011;4247;48.550;8.822;2022-08-19T12:04:54;5.90;;;4.17;;
8419;SDS011;4247;48.550;8.822;2022-08-19T12:07:21;5.03;;;4.53;;
8419;SDS011;4247;48.550;8.822;2022-08-19T12:09:51;5.10;;;4.40;;
8419;SDS011;4247;48.550;8.822;2022-08-19T12:12:18;5.17;;;4.43;;
8419;SDS011;4247;48.550;8.822;2022-08-19T12:14:45;5.03;;;4.10;;
8419;SDS011;4247;48.550;8.822;2022-08-19T12:17:12;9.40;;;5.07;;
8419;SDS011;4247;48.550;8.822;2022-08-19T12:19:38;4.70;;;4.30;;
8419;SDS011;4247;48.550;8.822;2022-08-19T12:22:05;3.63;;;3.33;;
8419;SDS011;4247;48.550;8.822;2022-08-19T12:24:32;4.47;;;4.03;;
8419;SDS011;4247;48.550;8.822;2022-08-19T12:27:01;4.67;;;4.17;;
8419;SDS011;4247;48.550;8.822;2022-08-19T12:29:28;5.23;;;4.83;;
8419;SDS011;4247;48.550;8.822;2022-08-19T12:31:55;4.17;;;3.87;;
8419;SDS011;4247;48.550;8.822;2022-08-19T12:34:26;3.60;;;3.40;;
8419;SDS011;4247;48.550;8.822;2022-08-19T12:36:55;4.70;;;4.30;;
8419;SDS011;4247;48.550;8.822;2022-08-19T12:39:22;5.53;;;3.33;;
8419;SDS011;4247;48.550;8.822;2022-08-19T12:41:49;4.77;;;4.37;;
8419;SDS011;4247;48.550;8.822;2022-08-19T12:44:18;4.27;;;3.70;;
8419;SDS011;4247;48.550;8.822;2022-08-19T12:46:46;5.17;;;4.37;;
8419;SDS011;4247;48.550;8.822;2022-08-19T12:49:14;4.20;;;3.90;;
8419;SDS011;4247;48.550;8.822;2022-08-19T12:51:41;3.30;;;3.07;;
8419;SDS011;4247;48.550;8.822;2022-08-19T12:54:08;3.30;;;3.10;;
8419;SDS011;4247;48.550;8.822;2022-08-19T12:56:36;7.10;;;5.80;;
8419;SDS011;4247;48.550;8.822;2022-08-19T12:59:03;7.20;;;5.80;;
8419;SDS011;4247;48.550;8.822;2022-08-19T13:01:34;7.07;;;6.30;;
8419;SDS011;4247;48.550;8.822;2022-08-19T13:04:01;6.97;;;6.37;;
8419;SDS011;4247;48.550;8.822;2022-08-19T13:06:29;8.30;;;7.43;;
8419;SDS011;4247;48.550;8.822;2022-08-19T13:08:56;8.50;;;7.03;;
8419;SDS011;4247;48.550;8.822;2022-08-19T13:11:23;7.00;;;6.40;;
8419;SDS011;4247;48.550;8.822;2022-08-19T13:13:51;8.80;;;7.60;;
8419;SDS011;4247;48.550;8.822;2022-08-19T13:16:20;7.47;;;6.17;;
8419;SDS011;4247;48.550;8.822;2022-08-19T13:18:49;4.97;;;4.50;;
8419;SDS011;4247;48.550;8.822;2022-08-19T13:21:17;6.20;;;4.40;;
8419;SDS011;4247;48.550;8.822;2022-08-19T13:23:46;5.13;;;4.60;;
8419;SDS011;4247;48.550;8.822;2022-08-19T13:26:13;8.77;;;5.57;;
8419;SDS011;4247;48.550;8.822;2022-08-19T13:28:42;5.37;;;4.87;;
8419;SDS011;4247;48.550;8.822;2022-08-19T13:31:28;5.43;;;4.93;;
8419;SDS011;4247;48.550;8.822;2022-08-19T13:34:16;6.17;;;5.67;;
8419;SDS011;4247;48.550;8.822;2022-08-19T13:36:44;5.87;;;5.37;;
8419;SDS011;4247;48.550;8.822;2022-08-19T13:39:12;6.13;;;5.63;;
8419;SDS011;4247;48.550;8.822;2022-08-19T13:41:42;5.70;;;5.20;;
8419;SDS011;4247;48.550;8.822;2022-08-19T13:44:12;7.63;;;5.23;;
8419;SDS011;4247;48.550;8.822;2022-08-19T13:46:40;7.50;;;6.13;;
8419;SDS011;4247;48.550;8.822;2022-08-19T13:49:09;8.97;;;5.40;;
8419;SDS011;4247;48.550;8.822;2022-08-19T13:51:38;8.90;;;5.80;;
8419;SDS011;4247;48.550;8.822;2022-08-19T13:54:05;6.13;;;5.60;;
8419;SDS011;4247;48.550;8.822;2022-08-19T13:56:33;6.40;;;5.80;;
8419;SDS011;4247;48.550;8.822;2022-08-19T13:59:01;5.77;;;5.30;;
8419;SDS011;4247;48.550;8.822;2022-08-19T14:01:28;6.60;;;5.90;;
8419;SDS011;4247;48.550;8.822;2022-08-19T14:03:55;6.30;;;5.70;;
8419;SDS011;4247;48.550;8.822;2022-08-19T14:06:22;6.57;;;5.90;;
8419;SDS011;4247;48.550;8.822;2022-08-19T14:08:51;7.53;;;6.83;;
8419;SDS011;4247;48.550;8.822;2022-08-19T14:11:19;6.87;;;5.50;;
8419;SDS011;4247;48.550;8.822;2022-08-19T14:13:47;7.03;;;5.80;;
8419;SDS011;4247;48.550;8.822;2022-08-19T14:16:16;6.60;;;5.97;;
8419;SDS011;4247;48.550;8.822;2022-08-19T14:18:43;5.83;;;5.33;;
8419;SDS011;4247;48.550;8.822;2022-08-19T14:21:13;7.47;;;6.83;;
8419;SDS011;4247;48.550;8.822;2022-08-19T14:23:42;6.53;;;5.60;;
8419;SDS011;4247;48.550;8.822;2022-08-19T14:26:12;5.63;;;5.13;;
8419;SDS011;4247;48.550;8.822;2022-08-19T14:28:40;5.10;;;4.70;;
8419;SDS011;4247;48.550;8.822;2022-08-19T14:31:07;5.93;;;5.33;;
8419;SDS011;4247;48.550;8.822;2022-08-19T14:33:35;5.70;;;4.83;;
8419;SDS011;4247;48.550;8.822;2022-08-19T14:36:02;6.73;;;5.37;;
8419;SDS011;4247;48.550;8.822;2022-08-19T14:38:30;7.20;;;5.53;;
8419;SDS011;4247;48.550;8.822;2022-08-19T14:41:05;6.67;;;5.17;;
8419;SDS011;4247;48.550;8.822;2022-08-19T14:43:35;6.93;;;5.80;;
8419;SDS011;4247;48.550;8.822;2022-08-19T14:46:06;7.43;;;5.33;;
8419;SDS011;4247;48.550;8.822;2022-08-19T14:48:35;5.43;;;5.03;;
8419;SDS011;4247;48.550;8.822;2022-08-19T14:51:03;7.03;;;5.50;;
8419;SDS011;4247;48.550;8.822;2022-08-19T14:53:31;6.67;;;5.20;;
8419;SDS011;4247;48.550;8.822;2022-08-19T14:55:59;5.93;;;5.33;;
8419;SDS011;4247;48.550;8.822;2022-08-19T14:58:27;5.83;;;5.33;;
8419;SDS011;4247;48.550;8.822;2022-08-19T15:00:55;5.43;;;5.03;;
8419;SDS011;4247;48.550;8.822;2022-08-19T15:03:23;7.43;;;5.60;;
8419;SDS011;4247;48.550;8.822;2022-08-19T15:05:50;5.77;;;5.37;;
8419;SDS011;4247;48.550;8.822;2022-08-19T15:08:18;5.63;;;5.17;;
8419;SDS011;4247;48.550;8.822;2022-08-19T15:10:49;5.43;;;5.00;;